KHVR/HVR METAR and TAF weather

Enter ICAO airport designator
Station Type Date Time Source
KHVR METAR 2022/11/30 16:53 UTC NOAA

KHVR 301653Z AUTO 08017KT 10SM OVC100 M14/M17 A2987 RMK AO2 PK WND 08026/1633 SLP172 T11391167


Station Type Date Time Source
KHVR Decoded METAR 2022/11/30 16:53 UTC NOAA

HAVRE CITY-COUNTY AIRPORT, MT, United States (KHVR) 48-33N 109-46W 787M
Nov 30, 2022 - 11:53 AM EST / 2022.11.30 1653 UTC
Wind: from the E (080 degrees) at 20 MPH (17 KT):0
Visibility: 10 mile(s):0
Sky conditions: overcast
Temperature: 7.0 F (-13.9 C)
Windchill: -13 F (-25 C):2
Dew Point: 1.9 F (-16.7 C)
Relative Humidity: 79%
Pressure (altimeter): 29.87 in. Hg (1011 hPa)
ob: KHVR 301653Z AUTO 08017KT 10SM OVC100 M14/M17 A2987 RMK AO2 PK WND 08026/1633 SLP172 T11391167
cycle: 17

Station Type Date Time Source
KHVR TAF 2022/11/30 12:22 UTC NOAA

TAF KHVR 301120Z 3012/0112 08012KT P6SM SCT090
FM301700 09016G26KT P6SM OVC090
FM302000 11016G26KT P6SM BKN090
FM010100 09011KT P6SM BKN090
FM010500 01007KT P6SM BKN090 PROB30 0110/0112 4SM -SN BR OVC025

Example: see airport list